Armstrong Airport
CYYW : now visible

Airfield :











YOU CAN JOIN US ON...

 
LOGIN :

Register | Disclaimer

   EN    FR    IT 

 









Legend :    VFR   Marginal VFR   IFR   Intensive IFR   Very Intensive IFR
Visi :
Ceiling :
>= 8 km
>= 3000ft
5 to 8 km
1000 to 3000 ft
1500m to 5 km
500 to 1000 ft
800 to 1500m
200 to 500 ft
< 800m
< 200 ft
Symbols :   Thunderstorms  Fog  Heavy snow  Heavy precipitations  Wind > 20 kt







- Airport Elevation : 1058 ft
- IATA code : YYW


CYYW - Armstrong

CURRENT METAR :
  • 162200Z AUTO 16007KT 9SM CLR 20/15 A3002 RMK SLP162 DENSITY ALT 1700FT

EXPIRED METARs :
  • 162100Z AUTO 14009KT 9SM CLR 21/15 A3003 RMK SLP163 DENSITY ALT 1800FT
  • 162000Z AUTO 16006KT 120V190 9SM CLR 21/16 A3004 RMK SLP166 DENSITY ALT 1800FT

TAF N/A
No reported NOTAMs for that airfield.



MET'MAP, your aeronautical weather chart ! - Copyright ORBIFLY December 2007 - Disclaimer

ORBIFLY MET'MAP TEAM :

Programming & Development : Alexandra Zaïnal
Concept & Development : Baudouin d'Aumeries
Co-Development & Prog : Marc-Olivier Méhu
Technical & hardware support : Manuel Goepfert

Contact : metmap@orbifly.com




SOURCES & CREDITS :

   NOAA       Earth
Advisory